createdAt,value
2022-08-29T00:02:00.136Z,19.90
2022-08-29T00:04:26.995Z,19.90
2022-08-29T00:06:54.520Z,19.90
2022-08-29T00:09:21.406Z,19.90
2022-08-29T00:11:48.241Z,19.90
2022-08-29T00:14:20.455Z,19.80
2022-08-29T00:16:50.694Z,19.80
2022-08-29T00:19:17.753Z,19.90
2022-08-29T00:21:44.856Z,19.80
2022-08-29T00:24:11.774Z,19.70
2022-08-29T00:26:38.746Z,19.80
2022-08-29T00:29:05.672Z,19.70
2022-08-29T00:31:32.729Z,19.70
2022-08-29T00:33:59.677Z,19.70
2022-08-29T00:36:27.012Z,19.70
2022-08-29T00:38:58.371Z,19.70
2022-08-29T00:41:25.919Z,19.60
2022-08-29T00:43:52.850Z,19.60
2022-08-29T00:46:41.618Z,19.60
2022-08-29T00:49:31.693Z,19.60
2022-08-29T00:52:01.959Z,19.60
2022-08-29T00:54:32.046Z,19.60
2022-08-29T00:56:59.278Z,19.60
2022-08-29T00:59:34.654Z,19.50
2022-08-29T01:02:05.124Z,19.50
2022-08-29T01:04:33.320Z,19.40
2022-08-29T01:07:00.983Z,19.40
2022-08-29T01:09:29.160Z,19.40
2022-08-29T01:12:15.045Z,19.30
2022-08-29T01:15:09.198Z,19.30
2022-08-29T01:17:44.266Z,19.30
2022-08-29T01:20:19.378Z,19.30
2022-08-29T01:23:19.403Z,19.20
2022-08-29T01:25:48.995Z,19.20
2022-08-29T01:28:23.333Z,19.20
2022-08-29T01:31:00.935Z,19.10
2022-08-29T01:33:56.880Z,19.00
2022-08-29T01:36:38.214Z,19.00
2022-08-29T01:39:06.506Z,19.00
2022-08-29T01:41:34.999Z,19.00
2022-08-29T01:44:08.675Z,19.00
2022-08-29T01:46:35.652Z,18.90
2022-08-29T01:49:05.275Z,18.90
2022-08-29T01:51:32.327Z,18.90
2022-08-29T01:56:34.835Z,18.80
2022-08-29T01:59:03.952Z,18.80
2022-08-29T02:01:34.189Z,18.70
2022-08-29T02:04:01.199Z,18.70
2022-08-29T02:06:28.339Z,18.70
2022-08-29T02:08:55.344Z,18.70
2022-08-29T02:11:23.430Z,18.60
2022-08-29T02:13:56.039Z,18.70
2022-08-29T02:16:24.890Z,18.70
2022-08-29T02:18:52.097Z,18.60
2022-08-29T02:21:22.438Z,18.60
2022-08-29T02:23:50.398Z,18.50
2022-08-29T02:26:19.690Z,18.20
2022-08-29T02:28:47.574Z,18.40
2022-08-29T02:31:16.874Z,18.40
2022-08-29T02:33:44.188Z,18.40
2022-08-29T02:36:11.097Z,18.40
2022-08-29T02:38:39.324Z,18.60
2022-08-29T02:41:09.283Z,18.20
2022-08-29T02:43:38.382Z,18.10
2022-08-29T02:46:05.602Z,18.20
2022-08-29T02:48:32.972Z,18.10
2022-08-29T02:50:59.957Z,18.10
2022-08-29T02:53:29.730Z,18.10
2022-08-29T02:55:56.864Z,18.00
2022-08-29T02:58:24.905Z,17.90
2022-08-29T03:00:52.371Z,17.90
2022-08-29T03:03:19.955Z,17.80
2022-08-29T03:05:48.010Z,17.90
2022-08-29T03:08:15.382Z,17.80
2022-08-29T03:10:43.459Z,17.80
2022-08-29T03:13:11.727Z,17.70
2022-08-29T03:15:38.804Z,17.80
2022-08-29T03:18:05.858Z,17.80
2022-08-29T03:20:35.840Z,17.80
2022-08-29T03:23:03.869Z,17.70
2022-08-29T03:25:31.267Z,17.70
2022-08-29T03:27:59.733Z,17.70
2022-08-29T03:30:28.008Z,17.60
2022-08-29T03:32:55.085Z,17.60
2022-08-29T03:35:22.656Z,17.60
2022-08-29T03:37:50.598Z,17.60
2022-08-29T03:40:19.350Z,17.60
2022-08-29T03:42:46.637Z,17.50
2022-08-29T03:45:16.261Z,17.50
2022-08-29T03:47:43.264Z,17.50
2022-08-29T03:50:13.025Z,17.50
2022-08-29T03:52:43.489Z,17.40
2022-08-29T03:55:11.529Z,17.40
2022-08-29T03:57:38.420Z,17.30
2022-08-29T04:00:13.816Z,17.30
2022-08-29T04:02:41.241Z,17.30
2022-08-29T04:05:08.901Z,16.80
2022-08-29T04:07:47.331Z,17.20
2022-08-29T04:10:31.765Z,17.30
2022-08-29T04:12:58.727Z,17.20
2022-08-29T04:15:26.803Z,17.20
2022-08-29T04:17:55.763Z,17.20
2022-08-29T04:20:27.656Z,17.20
2022-08-29T04:22:56.338Z,17.10
2022-08-29T04:25:25.194Z,17.10
2022-08-29T04:27:52.766Z,17.10
2022-08-29T04:30:22.872Z,17.10
2022-08-29T04:32:50.465Z,17.00
2022-08-29T04:35:17.963Z,17.10
2022-08-29T04:37:45.626Z,17.00
2022-08-29T04:40:17.065Z,17.10
2022-08-29T04:42:44.394Z,17.00
2022-08-29T04:45:16.584Z,17.00
2022-08-29T04:47:46.726Z,16.90
2022-08-29T04:50:18.345Z,16.90
2022-08-29T04:52:45.755Z,16.90
2022-08-29T04:55:13.725Z,16.90
2022-08-29T04:57:43.802Z,16.90
2022-08-29T05:00:16.264Z,16.90
2022-08-29T05:02:44.373Z,16.90
2022-08-29T05:05:13.982Z,16.90
2022-08-29T05:07:42.753Z,16.90
2022-08-29T05:10:17.328Z,16.80
2022-08-29T05:12:45.394Z,16.90
2022-08-29T05:15:13.369Z,16.80
2022-08-29T05:17:40.310Z,16.80
2022-08-29T05:20:08.232Z,16.90
2022-08-29T05:22:36.020Z,16.90
2022-08-29T05:25:05.062Z,16.80
2022-08-29T05:27:32.283Z,16.80
2022-08-29T05:29:59.063Z,16.80
2022-08-29T05:32:25.862Z,16.80
2022-08-29T05:34:52.718Z,16.90
2022-08-29T05:37:21.102Z,16.90
2022-08-29T05:39:49.900Z,16.90
2022-08-29T05:42:20.009Z,17.00
2022-08-29T05:44:47.029Z,17.00
2022-08-29T05:47:15.794Z,17.00
2022-08-29T05:49:44.324Z,17.00
2022-08-29T05:52:11.806Z,17.00
2022-08-29T05:54:40.830Z,17.00
2022-08-29T05:57:09.819Z,17.00
2022-08-29T05:59:38.778Z,17.10
2022-08-29T06:02:07.380Z,17.20
2022-08-29T06:04:34.762Z,17.20
2022-08-29T06:07:01.656Z,17.30
2022-08-29T06:09:28.901Z,17.30
2022-08-29T06:11:57.743Z,17.30
2022-08-29T06:14:25.102Z,17.40
2022-08-29T06:16:53.849Z,17.40
2022-08-29T06:19:20.825Z,17.40
2022-08-29T06:21:47.886Z,17.50
2022-08-29T06:24:15.204Z,17.60
2022-08-29T06:26:43.167Z,17.70
2022-08-29T06:29:10.420Z,17.70
2022-08-29T06:31:37.762Z,17.80
2022-08-29T06:34:06.876Z,17.90
2022-08-29T06:36:37.162Z,17.90
2022-08-29T06:39:08.739Z,18.10
2022-08-29T06:41:37.568Z,18.20
2022-08-29T06:44:04.539Z,18.30
2022-08-29T06:46:34.693Z,18.20
2022-08-29T06:49:04.659Z,18.30
2022-08-29T06:51:33.409Z,18.30
2022-08-29T06:54:07.113Z,18.40
2022-08-29T06:56:36.691Z,18.40
2022-08-29T06:59:05.541Z,18.50
2022-08-29T07:01:33.480Z,18.50
2022-08-29T07:04:01.295Z,18.60
2022-08-29T07:06:28.462Z,18.60
2022-08-29T07:08:56.536Z,18.60
2022-08-29T07:11:25.480Z,18.70
2022-08-29T07:13:52.351Z,18.70
2022-08-29T07:16:19.375Z,18.80
2022-08-29T07:18:47.369Z,18.90
2022-08-29T07:21:20.386Z,19.10
2022-08-29T07:23:48.499Z,19.30
2022-08-29T07:26:21.878Z,19.60
2022-08-29T07:28:54.078Z,19.80
2022-08-29T07:31:21.547Z,19.90
2022-08-29T07:33:49.288Z,20.20
2022-08-29T07:36:29.280Z,20.40
2022-08-29T07:38:56.064Z,20.60
2022-08-29T07:41:24.193Z,20.70
2022-08-29T07:43:51.091Z,20.90
2022-08-29T07:46:19.773Z,21.00
2022-08-29T07:48:47.098Z,21.10
2022-08-29T07:51:17.489Z,21.20
2022-08-29T07:53:44.627Z,21.30
2022-08-29T07:56:14.970Z,21.50
2022-08-29T07:58:42.738Z,21.70
2022-08-29T08:01:14.821Z,21.80
2022-08-29T08:03:50.172Z,21.90
2022-08-29T08:06:22.613Z,21.90
2022-08-29T08:08:50.107Z,22.10
2022-08-29T08:11:17.610Z,22.20
2022-08-29T08:13:44.751Z,22.30
2022-08-29T08:16:14.913Z,22.40
2022-08-29T08:18:43.912Z,22.20
2022-08-29T08:21:11.389Z,22.10
2022-08-29T08:23:38.772Z,22.10
2022-08-29T08:26:06.514Z,22.10
2022-08-29T08:28:34.050Z,22.30
2022-08-29T08:31:05.922Z,22.50
2022-08-29T08:33:35.196Z,22.70
2022-08-29T08:36:03.627Z,22.90
2022-08-29T08:38:31.565Z,22.90
2022-08-29T08:41:07.116Z,23.10
2022-08-29T08:43:43.195Z,23.30
2022-08-29T08:46:10.312Z,23.40
2022-08-29T08:48:40.092Z,23.60
2022-08-29T08:51:17.113Z,23.80
2022-08-29T08:53:47.197Z,23.80
2022-08-29T08:56:25.804Z,23.90
2022-08-29T08:59:06.592Z,24.10
2022-08-29T09:01:40.246Z,24.20
2022-08-29T09:04:27.119Z,24.20
2022-08-29T09:07:15.143Z,24.40
2022-08-29T09:10:01.985Z,24.50
2022-08-29T09:12:32.603Z,24.60
2022-08-29T09:14:59.364Z,24.70
2022-08-29T09:17:50.229Z,24.70
2022-08-29T09:20:22.312Z,24.80
2022-08-29T09:23:00.629Z,24.80
2022-08-29T09:25:30.204Z,24.80
2022-08-29T09:27:58.560Z,25.00
2022-08-29T09:30:28.815Z,25.00
2022-08-29T09:33:02.221Z,25.00
2022-08-29T09:35:42.591Z,25.10
2022-08-29T09:38:18.167Z,25.20
2022-08-29T09:41:00.479Z,25.20
2022-08-29T09:43:44.351Z,25.30
2022-08-29T09:46:11.352Z,25.30
2022-08-29T09:48:43.230Z,25.40
2022-08-29T09:51:21.722Z,25.40
2022-08-29T09:53:49.467Z,25.50
2022-08-29T09:56:24.041Z,25.60
2022-08-29T09:59:02.062Z,25.60
2022-08-29T10:01:32.349Z,25.60
2022-08-29T10:04:05.781Z,25.70
2022-08-29T10:06:44.295Z,25.70
2022-08-29T10:09:27.544Z,25.70
2022-08-29T10:12:08.268Z,25.70
2022-08-29T10:14:49.753Z,25.70
2022-08-29T10:17:44.965Z,25.70
2022-08-29T10:20:11.822Z,25.70
2022-08-29T10:22:57.693Z,25.80
2022-08-29T10:25:37.965Z,25.90
2022-08-29T10:28:16.308Z,26.00
2022-08-29T10:31:31.793Z,26.00
2022-08-29T10:34:09.025Z,26.00
2022-08-29T10:36:38.920Z,26.00
2022-08-29T10:39:13.533Z,26.00
2022-08-29T10:41:50.255Z,26.00
2022-08-29T10:44:29.633Z,26.10
2022-08-29T10:46:59.372Z,26.00
2022-08-29T10:49:40.759Z,26.00
2022-08-29T10:52:34.124Z,26.00
2022-08-29T10:55:13.019Z,26.10
2022-08-29T10:58:16.868Z,26.20
2022-08-29T11:01:23.395Z,26.20
2022-08-29T11:03:59.548Z,26.20
2022-08-29T11:06:31.865Z,26.20
2022-08-29T11:09:16.555Z,26.20
2022-08-29T11:12:00.045Z,26.20
2022-08-29T11:14:35.712Z,26.30
2022-08-29T11:17:05.639Z,26.20
2022-08-29T11:19:56.005Z,26.20
2022-08-29T11:22:28.611Z,26.20
2022-08-29T11:25:20.237Z,26.20
2022-08-29T11:28:16.457Z,26.00
2022-08-29T11:30:49.676Z,25.90
2022-08-29T11:33:44.106Z,25.90
2022-08-29T11:36:49.583Z,25.90
2022-08-29T11:39:55.032Z,25.90
2022-08-29T11:45:21.917Z,26.10
2022-08-29T11:47:48.630Z,26.10
2022-08-29T11:50:23.285Z,26.10
2022-08-29T11:53:04.176Z,26.10
2022-08-29T11:55:34.125Z,26.10
2022-08-29T11:58:09.834Z,26.10
2022-08-29T12:00:42.397Z,26.10
2022-08-29T12:03:36.165Z,26.10
2022-08-29T12:06:14.857Z,26.10
2022-08-29T12:09:05.364Z,26.10
2022-08-29T12:12:04.630Z,26.10
2022-08-29T12:14:39.233Z,26.10
2022-08-29T12:17:51.286Z,26.10
2022-08-29T12:20:29.883Z,26.10
2022-08-29T12:23:10.988Z,26.10
2022-08-29T12:26:20.992Z,26.20
2022-08-29T12:28:57.536Z,26.20
2022-08-29T12:32:18.168Z,26.20
2022-08-29T12:35:27.109Z,26.20
2022-08-29T12:38:12.621Z,26.20
2022-08-29T12:41:00.197Z,26.10
2022-08-29T12:43:42.871Z,26.10
2022-08-29T12:46:21.402Z,26.10
2022-08-29T12:48:57.507Z,26.10
2022-08-29T12:51:35.861Z,26.20
2022-08-29T12:54:02.968Z,26.20
2022-08-29T12:56:30.206Z,26.20
2022-08-29T12:59:00.299Z,26.20
2022-08-29T13:01:40.876Z,26.20
2022-08-29T13:04:10.629Z,26.20
2022-08-29T13:06:49.597Z,26.20
2022-08-29T13:09:30.229Z,26.20
2022-08-29T13:12:17.748Z,26.20
2022-08-29T13:15:00.488Z,26.20
2022-08-29T13:17:35.076Z,26.20
2022-08-29T13:20:43.135Z,26.20
2022-08-29T13:23:21.472Z,26.30
2022-08-29T13:25:53.090Z,26.20
2022-08-29T13:28:25.359Z,26.30
2022-08-29T13:31:16.189Z,26.30
2022-08-29T13:33:46.085Z,26.30
2022-08-29T13:36:45.156Z,26.30
2022-08-29T13:39:17.882Z,26.30
2022-08-29T13:41:51.102Z,26.30
2022-08-29T13:44:23.428Z,26.20
2022-08-29T13:46:52.404Z,26.20
2022-08-29T13:49:21.919Z,26.20
2022-08-29T13:51:48.824Z,26.20
2022-08-29T13:54:16.323Z,26.20
2022-08-29T13:56:45.728Z,26.20
2022-08-29T13:59:12.793Z,26.30
2022-08-29T14:04:38.044Z,26.30
2022-08-29T14:07:06.640Z,26.30
2022-08-29T14:09:39.286Z,26.30
2022-08-29T14:12:10.388Z,26.40
2022-08-29T14:14:37.477Z,26.30
2022-08-29T14:17:05.220Z,26.30
2022-08-29T14:19:32.768Z,26.30
2022-08-29T14:22:00.648Z,26.40
2022-08-29T14:24:31.176Z,26.40
2022-08-29T14:27:22.665Z,26.30
2022-08-29T14:33:04.908Z,26.30
2022-08-29T14:35:32.390Z,26.30
2022-08-29T14:38:22.945Z,26.30
2022-08-29T14:43:56.424Z,26.40
2022-08-29T14:46:37.353Z,26.40
2022-08-29T14:49:19.134Z,26.40
2022-08-29T14:51:57.578Z,26.30
2022-08-29T14:54:25.177Z,26.40
2022-08-29T14:56:52.339Z,26.40
2022-08-29T14:59:35.677Z,26.30
2022-08-29T15:02:27.084Z,26.40
2022-08-29T15:08:15.864Z,26.40
2022-08-29T15:10:44.452Z,26.30
2022-08-29T15:13:11.581Z,26.30
2022-08-29T15:15:38.504Z,26.30
2022-08-29T15:18:06.052Z,26.40
2022-08-29T15:20:37.288Z,26.20
2022-08-29T15:23:05.147Z,26.20
2022-08-29T15:25:32.792Z,26.10
2022-08-29T15:28:00.076Z,26.00
2022-08-29T15:30:27.646Z,26.10
2022-08-29T15:32:55.769Z,26.10
2022-08-29T15:35:23.004Z,26.10
2022-08-29T15:37:50.178Z,26.00
2022-08-29T15:40:17.577Z,26.10
2022-08-29T15:42:45.961Z,26.10
2022-08-29T15:45:13.220Z,26.10
2022-08-29T15:47:46.155Z,26.20
2022-08-29T15:50:13.940Z,26.20
2022-08-29T15:52:40.966Z,26.10
2022-08-29T15:55:08.559Z,26.20
2022-08-29T15:57:39.562Z,26.10
2022-08-29T16:00:21.511Z,26.10
2022-08-29T16:02:56.889Z,26.10
2022-08-29T16:05:24.036Z,26.10
2022-08-29T16:07:51.259Z,26.10
2022-08-29T16:10:18.284Z,26.10
2022-08-29T16:12:47.197Z,26.20
2022-08-29T16:15:16.757Z,26.20
2022-08-29T16:17:45.258Z,26.20
2022-08-29T16:20:12.294Z,26.20
2022-08-29T16:22:40.623Z,26.20
2022-08-29T16:25:13.429Z,26.20
2022-08-29T16:27:41.553Z,26.30
2022-08-29T16:30:10.605Z,26.20
2022-08-29T16:32:43.273Z,26.20
2022-08-29T16:35:10.969Z,26.20
2022-08-29T16:37:38.015Z,26.20
2022-08-29T16:40:09.159Z,26.20
2022-08-29T16:42:39.462Z,26.20
2022-08-29T16:45:08.479Z,26.20
2022-08-29T16:47:35.609Z,26.20
2022-08-29T16:50:03.992Z,26.20
2022-08-29T16:52:30.884Z,26.10
2022-08-29T16:54:58.361Z,26.10
2022-08-29T16:57:25.655Z,26.10
2022-08-29T16:59:55.121Z,26.10
2022-08-29T17:02:22.560Z,26.00
2022-08-29T17:04:52.342Z,26.10
2022-08-29T17:07:21.100Z,26.00
2022-08-29T17:09:48.094Z,26.00
2022-08-29T17:12:18.644Z,26.00
2022-08-29T17:14:52.221Z,26.00
2022-08-29T17:17:21.915Z,26.10
2022-08-29T17:19:49.163Z,26.00
2022-08-29T17:22:19.001Z,26.00
2022-08-29T17:24:48.274Z,26.00
2022-08-29T17:27:21.125Z,26.00
2022-08-29T17:29:49.760Z,26.00
2022-08-29T17:32:20.208Z,26.00
2022-08-29T17:34:48.584Z,26.00
2022-08-29T17:37:15.495Z,26.00
2022-08-29T17:39:46.282Z,25.90
2022-08-29T17:42:14.267Z,25.90
2022-08-29T17:44:41.135Z,25.90
2022-08-29T17:47:08.186Z,25.90
2022-08-29T17:49:35.265Z,25.90
2022-08-29T17:52:05.809Z,25.90
2022-08-29T17:54:32.934Z,25.90
2022-08-29T17:57:00.861Z,25.80
2022-08-29T17:59:33.053Z,25.80
2022-08-29T18:02:03.233Z,25.80
2022-08-29T18:04:31.054Z,25.80
2022-08-29T18:06:58.867Z,25.80
2022-08-29T18:09:26.276Z,25.80
2022-08-29T18:11:57.421Z,25.70
2022-08-29T18:14:27.805Z,25.70
2022-08-29T18:16:56.026Z,25.70
2022-08-29T18:19:23.887Z,25.70
2022-08-29T18:21:53.448Z,25.70
2022-08-29T18:24:21.219Z,25.70
2022-08-29T18:26:48.888Z,25.60
2022-08-29T18:29:16.996Z,25.60
2022-08-29T18:31:44.437Z,25.60
2022-08-29T18:34:12.176Z,25.60
2022-08-29T18:36:43.370Z,25.60
2022-08-29T18:39:12.091Z,25.60
2022-08-29T18:41:39.183Z,25.50
2022-08-29T18:44:06.332Z,25.50
2022-08-29T18:46:33.947Z,25.50
2022-08-29T18:49:04.683Z,25.50
2022-08-29T18:51:33.417Z,25.40
2022-08-29T18:54:00.474Z,25.40
2022-08-29T18:59:09.810Z,25.40
2022-08-29T19:01:37.122Z,25.40
2022-08-29T19:04:04.157Z,25.40
2022-08-29T19:06:31.590Z,25.30
2022-08-29T19:08:58.480Z,25.30
2022-08-29T19:11:28.495Z,25.20
2022-08-29T19:13:55.331Z,25.20
2022-08-29T19:16:23.048Z,25.20
2022-08-29T19:18:50.395Z,25.10
2022-08-29T19:21:17.338Z,25.00
2022-08-29T19:23:47.290Z,25.00
2022-08-29T19:26:29.096Z,24.90
2022-08-29T19:28:59.401Z,24.80
2022-08-29T19:31:27.830Z,24.70
2022-08-29T19:33:55.352Z,24.50
2022-08-29T19:36:23.599Z,24.50
2022-08-29T19:38:50.950Z,24.40
2022-08-29T19:41:17.869Z,24.30
2022-08-29T19:43:45.312Z,24.10
2022-08-29T19:46:20.052Z,24.10
2022-08-29T19:48:51.349Z,24.10
2022-08-29T19:51:21.268Z,24.00
2022-08-29T19:53:49.018Z,23.90
2022-08-29T19:56:16.918Z,23.80
2022-08-29T19:58:44.396Z,23.80
2022-08-29T20:01:11.431Z,23.70
2022-08-29T20:03:41.363Z,23.70
2022-08-29T20:06:09.163Z,23.70
2022-08-29T20:08:41.929Z,23.70
2022-08-29T20:11:19.377Z,23.70
2022-08-29T20:13:50.621Z,23.70
2022-08-29T20:16:21.385Z,23.60
2022-08-29T20:18:48.672Z,23.60
2022-08-29T20:21:17.029Z,23.60
2022-08-29T20:23:49.469Z,23.60
2022-08-29T20:26:18.753Z,23.60
2022-08-29T20:28:45.653Z,23.60
2022-08-29T20:31:13.055Z,23.40
2022-08-29T20:33:41.433Z,23.40
2022-08-29T20:36:27.122Z,23.40
2022-08-29T20:38:54.484Z,23.40
2022-08-29T20:41:21.907Z,23.30
2022-08-29T20:43:48.855Z,23.40
2022-08-29T20:46:19.505Z,23.40
2022-08-29T20:48:46.419Z,23.30
2022-08-29T20:51:13.523Z,23.40
2022-08-29T20:53:40.805Z,23.30
2022-08-29T20:56:08.535Z,23.30
2022-08-29T20:58:36.063Z,23.30
2022-08-29T21:01:04.942Z,23.30
2022-08-29T21:03:50.675Z,23.20
2022-08-29T21:06:21.376Z,23.30
2022-08-29T21:08:49.113Z,23.20
2022-08-29T21:11:16.370Z,23.20
2022-08-29T21:13:43.689Z,23.20
2022-08-29T21:16:11.287Z,23.20
2022-08-29T21:18:38.415Z,23.20
2022-08-29T21:21:05.693Z,23.20
2022-08-29T21:23:32.603Z,23.10
2022-08-29T21:26:00.953Z,23.10
2022-08-29T21:28:29.495Z,23.10
2022-08-29T21:30:58.077Z,23.10
2022-08-29T21:33:25.110Z,23.00
2022-08-29T21:35:51.913Z,23.00
2022-08-29T21:38:18.726Z,23.00
2022-08-29T21:40:50.772Z,22.90
2022-08-29T21:43:21.431Z,22.90
2022-08-29T21:45:48.547Z,22.90
2022-08-29T21:48:16.660Z,22.90
2022-08-29T21:50:43.517Z,22.90
2022-08-29T21:53:14.868Z,22.80
2022-08-29T21:55:42.004Z,22.90
2022-08-29T21:58:08.805Z,22.80
2022-08-29T22:00:40.560Z,22.80
2022-08-29T22:03:09.169Z,22.80
2022-08-29T22:05:36.074Z,22.80
2022-08-29T22:08:06.961Z,22.80
2022-08-29T22:10:36.532Z,22.70
2022-08-29T22:13:05.658Z,22.70
2022-08-29T22:15:51.234Z,22.70
2022-08-29T22:18:19.344Z,22.70
2022-08-29T22:20:47.932Z,22.70
2022-08-29T22:23:20.473Z,22.70
2022-08-29T22:25:47.431Z,22.70
2022-08-29T22:28:14.242Z,22.70
2022-08-29T22:30:40.966Z,22.60
2022-08-29T22:33:08.185Z,22.60
2022-08-29T22:35:35.574Z,22.70
2022-08-29T22:38:02.961Z,22.60
2022-08-29T22:40:30.057Z,22.60
2022-08-29T22:42:57.392Z,22.50
2022-08-29T22:45:24.442Z,22.50
2022-08-29T22:47:51.489Z,22.50
2022-08-29T22:50:24.486Z,22.50
2022-08-29T22:52:54.881Z,22.50
2022-08-29T22:57:51.508Z,22.40
2022-08-29T23:00:22.548Z,22.40
2022-08-29T23:02:50.411Z,22.40
2022-08-29T23:05:18.263Z,22.40
2022-08-29T23:07:45.857Z,22.40
2022-08-29T23:10:14.158Z,22.40
2022-08-29T23:12:41.090Z,22.40
2022-08-29T23:15:13.904Z,22.40
2022-08-29T23:17:41.321Z,22.40
2022-08-29T23:20:11.377Z,22.40
2022-08-29T23:22:38.833Z,22.40
2022-08-29T23:25:08.206Z,22.30
2022-08-29T23:27:37.954Z,22.30
2022-08-29T23:30:08.109Z,22.30
2022-08-29T23:32:34.966Z,22.30
2022-08-29T23:35:01.883Z,22.20
2022-08-29T23:37:28.682Z,22.30
2022-08-29T23:39:55.503Z,22.20
2022-08-29T23:42:22.298Z,22.20
2022-08-29T23:44:49.133Z,22.10
2022-08-29T23:47:17.098Z,22.10
2022-08-29T23:49:44.492Z,22.10
2022-08-29T23:52:11.299Z,22.00
2022-08-29T23:54:38.092Z,22.00
2022-08-29T23:57:05.114Z,22.00
2022-08-29T23:59:51.907Z,21.90
